Time;durP1;ratioP1;P1;durP2;ratioP2;P2;SDS_P1;SDS_P2;PMS_P1;PMS_P2;Temp;Humidity;BMP_temperature;BMP_pressure;BME280_temperature;BME280_humidity;BME280_pressure;Samples;Min_cycle;Max_cycle;Signal;HPM_P1;HPM_P2
2020/12/15 05:01:20;;;;;;;10.73;9.40;;;6.80;99.90;;;;;;5577490;23;21085;-62
2020/12/15 05:03:48;;;;;;;10.97;9.87;;;6.80;99.90;;;;;;4976440;28;20454;-63
2020/12/15 05:06:16;;;;;;;12.63;11.33;;;6.80;99.90;;;;;;4975810;28;20465;-63
2020/12/15 05:08:47;;;;;;;12.77;10.70;;;6.80;99.90;;;;;;4978478;28;20487;-62
2020/12/15 05:11:14;;;;;;;12.63;11.37;;;6.80;99.90;;;;;;4981844;28;20525;-62
2020/12/15 05:13:40;;;;;;;12.53;11.23;;;6.70;99.90;;;;;;4981629;28;20485;-62
2020/12/15 05:16:06;;;;;;;12.80;10.73;;;6.70;99.90;;;;;;4976651;28;20821;-63
2020/12/15 05:18:33;;;;;;;11.60;10.40;;;6.70;99.90;;;;;;4976048;28;20455;-63
2020/12/15 05:21:10;;;;;;;11.17;10.00;;;6.60;99.90;;;;;;4975971;28;20479;-64
2020/12/15 05:23:44;;;;;;;15.33;10.37;;;6.60;99.90;;;;;;5013774;23;20423;-61
2020/12/15 05:26:10;;;;;;;10.83;9.67;;;6.60;99.90;;;;;;4976478;28;20434;-62
2020/12/15 05:28:36;;;;;;;11.43;9.50;;;6.60;99.90;;;;;;4976033;28;20478;-63
2020/12/15 05:31:02;;;;;;;10.80;9.80;;;6.60;99.90;;;;;;4975969;28;20480;-62
2020/12/15 05:33:29;;;;;;;10.87;9.77;;;6.60;99.90;;;;;;4975488;28;20454;-62
2020/12/15 05:35:56;;;;;;;9.63;7.70;;;6.60;99.90;;;;;;4975432;28;20508;-62
2020/12/15 05:38:22;;;;;;;9.30;7.43;;;6.60;99.90;;;;;;4975090;28;20861;-66
2020/12/15 05:40:48;;;;;;;9.00;8.20;;;6.70;99.90;;;;;;4975653;28;20459;-62
2020/12/15 05:43:24;;;;;;;11.70;8.40;;;6.70;99.90;;;;;;4975177;28;20450;-62
2020/12/15 05:45:50;;;;;;;12.17;9.37;;;6.80;99.90;;;;;;4974377;28;20784;-60
2020/12/15 05:48:18;;;;;;;10.70;8.43;;;6.80;99.90;;;;;;4974313;28;20521;-61
2020/12/15 05:50:44;;;;;;;10.43;7.67;;;6.90;99.90;;;;;;4974591;28;20460;-62
2020/12/15 05:53:11;;;;;;;9.37;8.00;;;6.80;99.90;;;;;;4974400;28;20975;-60
2020/12/15 05:55:39;;;;;;;8.30;7.50;;;6.80;99.90;;;;;;4974211;28;20500;-61
2020/12/15 05:58:06;;;;;;;8.30;7.50;;;6.80;99.90;;;;;;4974581;28;20450;-61
2020/12/15 06:00:33;;;;;;;10.97;8.20;;;6.90;99.90;;;;;;4974416;28;20458;-61
2020/12/15 06:03:01;;;;;;;8.60;7.70;;;6.90;99.90;;;;;;4974768;28;20458;-61
2020/12/15 06:05:29;;;;;;;10.17;9.07;;;7.00;99.90;;;;;;4974375;28;20474;-61
2020/12/15 06:07:56;;;;;;;6.13;5.47;;;7.10;99.90;;;;;;4975388;28;20485;-61
2020/12/15 06:10:25;;;;;;;6.33;5.73;;;7.70;99.90;;;;;;4974486;28;20946;-61
2020/12/15 06:12:51;;;;;;;6.70;5.80;;;9.00;99.90;;;;;;4974776;28;20513;-62
2020/12/15 06:15:18;;;;;;;7.83;7.13;;;10.50;99.90;;;;;;4974168;28;20474;-61
2020/12/15 06:17:49;;;;;;;10.53;7.70;;;10.90;99.90;;;;;;4974324;28;20458;-61
2020/12/15 06:20:19;;;;;;;7.93;7.27;;;10.70;99.90;;;;;;4974342;28;20487;-61
2020/12/15 06:22:46;;;;;;;12.00;7.87;;;10.30;99.90;;;;;;4974529;28;20450;-61
2020/12/15 06:25:12;;;;;;;8.27;7.47;;;10.00;99.90;;;;;;4973762;28;20556;-61
2020/12/15 06:27:39;;;;;;;9.10;8.30;;;9.60;99.90;;;;;;4974306;28;20489;-61
2020/12/15 06:30:07;;;;;;;8.60;7.73;;;9.40;99.90;;;;;;4974255;28;20454;-61
2020/12/15 06:32:33;;;;;;;9.50;8.50;;;9.20;99.90;;;;;;4974164;28;20770;-61
2020/12/15 06:35:01;;;;;;;8.70;7.83;;;8.80;99.90;;;;;;4974020;28;20475;-61
2020/12/15 06:37:29;;;;;;;10.03;7.77;;;8.60;99.90;;;;;;4974521;28;20497;-61
2020/12/15 06:39:57;;;;;;;8.57;7.77;;;8.40;99.90;;;;;;4974092;28;20541;-61
2020/12/15 06:42:23;;;;;;;8.37;7.60;;;8.10;99.90;;;;;;4974036;28;20454;-60
2020/12/15 06:45:07;;;;;;;7.43;6.63;;;7.90;99.90;;;;;;4974081;28;20478;-61
2020/12/15 06:47:34;;;;;;;7.10;6.23;;;7.60;99.90;;;;;;4973831;28;20466;-61
2020/12/15 06:50:11;;;;;;;6.77;6.10;;;7.50;99.90;;;;;;4974273;28;20451;-61
2020/12/15 06:52:38;;;;;;;6.60;5.90;;;7.40;99.90;;;;;;4974343;28;20459;-61
2020/12/15 06:55:04;;;;;;;7.30;6.60;;;7.30;99.90;;;;;;4975033;28;20474;-61
2020/12/15 06:57:32;;;;;;;7.67;6.57;;;7.30;99.90;;;;;;4975051;28;20450;-61
2020/12/15 07:00:00;;;;;;;9.63;6.50;;;7.20;99.90;;;;;;4977845;28;20486;-61
2020/12/15 07:02:30;;;;;;;7.27;6.10;;;7.10;99.90;;;;;;4977968;28;20458;-61
2020/12/15 07:05:16;;;;;;;6.33;5.80;;;7.10;99.90;;;;;;4977564;28;20482;-61
2020/12/15 07:07:50;;;;;;;6.87;6.17;;;7.10;99.90;;;;;;4977482;28;20466;-61
2020/12/15 07:10:18;;;;;;;7.10;6.40;;;7.10;99.90;;;;;;4977448;28;20454;-61
2020/12/15 07:12:47;;;;;;;6.70;6.10;;;7.00;99.90;;;;;;4977243;28;20817;-61
2020/12/15 07:15:14;;;;;;;6.83;6.23;;;6.90;99.90;;;;;;4977388;28;20485;-61
2020/12/15 07:17:48;;;;;;;7.00;6.33;;;6.90;99.90;;;;;;4977757;28;20462;-61
2020/12/15 07:20:15;;;;;;;8.00;7.27;;;7.00;99.90;;;;;;4979974;28;20458;-61
2020/12/15 07:22:41;;;;;;;8.10;6.40;;;7.00;99.90;;;;;;4980641;28;20442;-61
2020/12/15 07:25:09;;;;;;;10.57;7.43;;;7.10;99.90;;;;;;4979562;28;20486;-61
2020/12/15 07:27:36;;;;;;;7.30;6.20;;;7.20;99.90;;;;;;4977190;28;20482;-61
2020/12/15 07:30:06;;;;;;;9.00;7.20;;;7.20;99.90;;;;;;4977078;28;20454;-60
2020/12/15 07:32:36;;;;;;;7.97;7.17;;;7.30;99.90;;;;;;4977183;28;20538;-60
2020/12/15 07:35:06;;;;;;;11.50;7.60;;;7.30;99.90;;;;;;4977622;28;20501;-60
2020/12/15 07:37:36;;;;;;;8.93;8.00;;;7.60;99.90;;;;;;4979155;28;20470;-60
2020/12/15 07:40:05;;;;;;;12.87;9.17;;;7.60;99.90;;;;;;4978612;28;20973;-61
2020/12/15 07:42:32;;;;;;;9.80;8.67;;;7.50;99.90;;;;;;4976992;28;20454;-61
2020/12/15 07:45:00;;;;;;;9.03;7.80;;;7.40;99.90;;;;;;4976511;28;20581;-61
2020/12/15 07:47:27;;;;;;;10.43;9.33;;;7.40;99.90;;;;;;4976736;28;20489;-60
2020/12/15 07:49:55;;;;;;;9.27;7.50;;;7.40;99.90;;;;;;4976463;28;20466;-60
2020/12/15 07:52:30;;;;;;;9.10;7.43;;;7.30;99.90;;;;;;4976803;28;20550;-60
2020/12/15 07:55:05;;;;;;;10.80;8.90;;;7.30;99.90;;;;;;4976507;28;20485;-62
2020/12/15 07:57:33;;;;;;;7.90;7.07;;;7.30;99.90;;;;;;4976429;28;20508;-60
2020/12/15 08:00:04;;;;;;;11.07;8.77;;;7.20;99.90;;;;;;4976599;28;20455;-62
2020/12/15 08:02:30;;;;;;;9.87;8.73;;;7.20;99.90;;;;;;4976484;28;20450;-60
2020/12/15 08:05:10;;;;;;;11.73;8.77;;;7.10;99.90;;;;;;4976514;28;20495;-61
2020/12/15 08:07:49;;;;;;;11.50;8.63;;;7.00;99.90;;;;;;4976112;28;20854;-61
2020/12/15 08:10:21;;;;;;;10.43;7.23;;;6.90;99.90;;;;;;4975814;28;20459;-61
2020/12/15 08:12:48;;;;;;;16.73;7.63;;;6.90;99.90;;;;;;4977047;28;20439;-61
2020/12/15 08:15:14;;;;;;;9.77;8.03;;;6.90;99.90;;;;;;4976236;28;20470;-61
2020/12/15 08:17:43;;;;;;;11.27;8.70;;;7.00;99.90;;;;;;4976171;28;20451;-61
2020/12/15 08:20:10;;;;;;;9.00;7.70;;;7.10;99.90;;;;;;4976315;28;20517;-61
2020/12/15 08:22:39;;;;;;;11.10;8.77;;;7.10;99.90;;;;;;4976092;28;20469;-62
2020/12/15 08:25:08;;;;;;;9.80;8.47;;;7.20;99.90;;;;;;4975674;28;20851;-62
2020/12/15 08:27:35;;;;;;;10.83;7.87;;;7.20;99.90;;;;;;4977516;28;20842;-62
2020/12/15 08:30:12;;;;;;;11.50;9.00;;;7.20;99.90;;;;;;4976524;28;20473;-62
2020/12/15 08:32:44;;;;;;;9.00;8.10;;;7.30;99.90;;;;;;4976582;28;20442;-62
2020/12/15 08:35:10;;;;;;;9.07;8.13;;;7.10;99.90;;;;;;4976512;28;20506;-62
2020/12/15 08:37:38;;;;;;;9.60;8.17;;;7.20;99.90;;;;;;4975788;28;20455;-62
2020/12/15 08:40:08;;;;;;;14.23;7.63;;;7.10;99.90;;;;;;4975649;28;20458;-62
2020/12/15 08:42:34;;;;;;;9.70;8.10;;;7.10;99.90;;;;;;4976340;28;20459;-62
2020/12/15 08:45:11;;;;;;;10.03;9.03;;;7.10;99.90;;;;;;4975856;28;20811;-62
2020/12/15 08:47:43;;;;;;;10.70;8.33;;;7.20;99.90;;;;;;4975490;28;20467;-62
2020/12/15 08:50:10;;;;;;;10.43;9.20;;;7.20;99.90;;;;;;4976196;28;20489;-62
2020/12/15 08:52:37;;;;;;;10.43;8.57;;;7.20;99.90;;;;;;4975366;28;20945;-62
2020/12/15 08:55:03;;;;;;;10.17;8.57;;;7.20;99.90;;;;;;4975620;28;20479;-62
2020/12/15 08:57:30;;;;;;;10.07;8.50;;;7.20;99.90;;;;;;4975683;28;20510;-62
2020/12/15 08:59:56;;;;;;;12.73;9.00;;;7.20;99.90;;;;;;4975170;28;20968;-62
2020/12/15 09:02:23;;;;;;;14.93;9.37;;;7.20;99.90;;;;;;4975302;28;20461;-62
2020/12/15 09:04:49;;;;;;;10.10;8.63;;;7.20;99.90;;;;;;4975060;28;20484;-62
2020/12/15 09:07:17;;;;;;;9.30;8.40;;;7.20;99.90;;;;;;4975761;28;20508;-62
2020/12/15 09:09:43;;;;;;;9.70;8.13;;;7.30;99.90;;;;;;4976200;28;20459;-62
2020/12/15 09:12:10;;;;;;;7.83;7.10;;;7.30;99.90;;;;;;4974998;28;20458;-62
2020/12/15 09:14:37;;;;;;;9.40;7.47;;;7.30;99.90;;;;;;4975252;28;20479;-62
2020/12/15 09:17:04;;;;;;;8.47;7.50;;;7.40;99.90;;;;;;4975118;28;20458;-62
2020/12/15 09:19:30;;;;;;;9.33;7.20;;;7.40;99.90;;;;;;4975884;28;20466;-60
2020/12/15 09:21:59;;;;;;;7.93;7.23;;;7.50;99.90;;;;;;4975290;28;20574;-60
2020/12/15 09:24:25;;;;;;;8.67;7.80;;;7.50;99.90;;;;;;4975639;28;20486;-62
2020/12/15 09:26:51;;;;;;;8.50;7.63;;;7.60;99.90;;;;;;4975333;28;20465;-61
2020/12/15 09:29:18;;;;;;;7.53;6.73;;;7.60;99.90;;;;;;4975806;28;20478;-61
2020/12/15 09:31:51;;;;;;;9.07;6.30;;;7.60;99.90;;;;;;4974913;28;20487;-62
2020/12/15 09:34:17;;;;;;;8.43;7.00;;;7.60;99.90;;;;;;4974972;28;20549;-61
2020/12/15 09:36:56;;;;;;;9.10;7.80;;;7.70;99.90;;;;;;4975088;28;20463;-62
2020/12/15 09:39:23;;;;;;;8.73;7.03;;;7.70;99.90;;;;;;4975335;28;20439;-62
2020/12/15 09:41:49;;;;;;;10.10;7.10;;;7.70;99.90;;;;;;4975495;28;20458;-62
2020/12/15 09:44:15;;;;;;;9.40;7.30;;;7.80;99.90;;;;;;4974396;28;21048;-60
2020/12/15 09:46:41;;;;;;;8.37;6.87;;;7.80;99.90;;;;;;4974807;28;20527;-62
2020/12/15 09:49:08;;;;;;;9.17;6.70;;;7.90;99.90;;;;;;4974835;28;20478;-61
2020/12/15 09:51:35;;;;;;;7.53;6.70;;;8.00;99.90;;;;;;4974795;28;20461;-61
2020/12/15 09:54:01;;;;;;;10.93;7.27;;;8.10;99.90;;;;;;4974583;28;20845;-61
2020/12/15 09:56:28;;;;;;;9.57;6.47;;;8.10;99.90;;;;;;4974696;28;20458;-60
2020/12/15 09:58:54;;;;;;;7.20;6.50;;;8.10;99.90;;;;;;4974517;28;20450;-61
2020/12/15 10:01:21;;;;;;;9.03;7.53;;;8.20;99.90;;;;;;4975167;28;20458;-62
2020/12/15 10:03:47;;;;;;;9.63;6.30;;;8.20;99.90;;;;;;4974661;28;20478;-61
2020/12/15 10:06:15;;;;;;;7.53;6.47;;;8.30;99.90;;;;;;4974381;28;20463;-61
2020/12/15 10:08:41;;;;;;;6.53;5.90;;;8.30;99.90;;;;;;4974337;28;20510;-62
2020/12/15 10:11:07;;;;;;;11.00;5.93;;;8.30;99.90;;;;;;4974589;28;20458;-61
2020/12/15 10:13:33;;;;;;;7.00;6.30;;;8.30;99.90;;;;;;4974605;28;20458;-61
2020/12/15 10:15:59;;;;;;;6.83;6.23;;;8.20;99.90;;;;;;4975354;28;20462;-61
2020/12/15 10:18:26;;;;;;;6.57;5.97;;;8.20;99.90;;;;;;4974369;28;20934;-61
2020/12/15 10:20:52;;;;;;;6.93;6.23;;;8.20;99.90;;;;;;4974430;28;20529;-61
2020/12/15 10:23:19;;;;;;;7.20;6.50;;;8.20;99.90;;;;;;4974826;28;20459;-61
2020/12/15 10:25:45;;;;;;;7.23;6.50;;;8.20;99.90;;;;;;4974112;28;20466;-61
2020/12/15 10:28:12;;;;;;;7.47;6.77;;;8.30;99.90;;;;;;4974104;28;20928;-61
2020/12/15 10:30:38;;;;;;;7.37;6.60;;;8.30;99.90;;;;;;4974411;28;20542;-62
2020/12/15 10:33:04;;;;;;;6.83;6.13;;;8.40;99.90;;;;;;4975896;28;20526;-62
2020/12/15 10:35:30;;;;;;;7.67;6.97;;;8.50;99.90;;;;;;4977948;28;20982;-61
2020/12/15 10:37:56;;;;;;;8.63;7.73;;;8.50;99.90;;;;;;4979274;28;20821;-61
2020/12/15 10:40:23;;;;;;;14.80;9.50;;;8.50;99.90;;;;;;4980361;28;20455;-62
2020/12/15 10:42:49;;;;;;;8.90;6.77;;;8.50;99.90;;;;;;4978094;28;20451;-62
2020/12/15 10:45:17;;;;;;;9.40;7.63;;;8.60;99.90;;;;;;4977910;28;20474;-60
2020/12/15 10:47:44;;;;;;;10.37;8.10;;;8.60;99.90;;;;;;4977821;28;20475;-62
2020/12/15 10:50:10;;;;;;;14.00;7.63;;;8.70;99.90;;;;;;4977939;28;20458;-62
2020/12/15 10:52:36;;;;;;;12.00;8.07;;;8.80;99.90;;;;;;4977754;28;20497;-61
2020/12/15 10:55:03;;;;;;;11.27;7.67;;;8.70;99.90;;;;;;4977357;28;20997;-60
2020/12/15 10:57:31;;;;;;;9.40;8.33;;;8.80;99.90;;;;;;4977653;28;20521;-60
2020/12/15 10:59:57;;;;;;;10.40;8.10;;;8.90;99.90;;;;;;4977602;28;20542;-62
2020/12/15 11:02:23;;;;;;;9.70;7.47;;;8.80;99.90;;;;;;4978251;28;20455;-62
2020/12/15 11:04:49;;;;;;;9.70;8.80;;;8.80;99.90;;;;;;4977498;28;20835;-61
2020/12/15 11:07:16;;;;;;;8.27;7.47;;;8.90;99.90;;;;;;4977313;28;20454;-61
2020/12/15 11:09:42;;;;;;;11.77;8.77;;;8.80;99.90;;;;;;4977096;28;20960;-60
2020/12/15 11:12:08;;;;;;;11.37;8.93;;;8.80;99.90;;;;;;4977482;28;20529;-60
2020/12/15 11:14:35;;;;;;;14.93;10.33;;;8.60;99.90;;;;;;4977228;28;20478;-63
2020/12/15 11:17:01;;;;;;;12.20;8.50;;;8.50;99.90;;;;;;4977356;28;20454;-62
2020/12/15 11:19:27;;;;;;;9.93;8.93;;;8.50;99.90;;;;;;4977484;28;20454;-62
2020/12/15 11:21:54;;;;;;;11.17;9.30;;;8.50;99.90;;;;;;4977243;28;20463;-62
2020/12/15 11:24:20;;;;;;;19.83;9.93;;;8.40;99.90;;;;;;4977104;28;20505;-62
2020/12/15 11:26:49;;;;;;;13.27;8.83;;;8.40;99.90;;;;;;4980151;28;20462;-61
2020/12/15 11:29:15;;;;;;;10.30;8.60;;;8.40;99.90;;;;;;4978887;28;20478;-62
2020/12/15 11:31:42;;;;;;;15.47;9.00;;;8.40;99.90;;;;;;4993369;23;21004;-65
2020/12/15 11:34:08;;;;;;;11.13;9.50;;;8.40;99.90;;;;;;4978948;28;20506;-65
2020/12/15 11:36:35;;;;;;;12.93;9.80;;;8.40;99.90;;;;;;4978824;28;20461;-63
2020/12/15 11:39:01;;;;;;;11.73;9.30;;;8.30;99.90;;;;;;4977969;28;20493;-65
2020/12/15 11:41:28;;;;;;;12.23;9.93;;;8.40;99.90;;;;;;4978566;28;20810;-64
2020/12/15 11:43:55;;;;;;;11.67;9.57;;;8.30;99.90;;;;;;4977389;28;20815;-64
2020/12/15 11:46:22;;;;;;;11.50;9.87;;;8.40;99.90;;;;;;4977728;28;20948;-65
2020/12/15 11:48:49;;;;;;;14.87;10.50;;;8.40;99.90;;;;;;4978097;28;20486;-66
2020/12/15 11:51:18;;;;;;;11.73;9.70;;;8.40;99.90;;;;;;4977826;28;20471;-65
2020/12/15 11:53:44;;;;;;;12.57;10.50;;;8.30;99.90;;;;;;4979004;28;20458;-63
2020/12/15 11:56:10;;;;;;;12.13;10.03;;;8.30;99.90;;;;;;4978306;28;20459;-64
2020/12/15 11:58:40;;;;;;;10.93;9.83;;;8.30;99.90;;;;;;4978361;28;20858;-64
2020/12/15 12:01:07;;;;;;;11.33;9.93;;;8.30;99.90;;;;;;4978170;28;20481;-66
2020/12/15 12:03:33;;;;;;;12.40;9.40;;;8.40;99.90;;;;;;4978288;28;20516;-64
2020/12/15 12:06:00;;;;;;;12.37;11.07;;;8.40;99.90;;;;;;4978404;28;20945;-64
2020/12/15 12:08:26;;;;;;;10.90;9.80;;;8.40;99.90;;;;;;4977927;28;20475;-63
2020/12/15 12:10:52;;;;;;;15.60;9.73;;;8.50;99.90;;;;;;4977752;28;20482;-65
2020/12/15 12:13:19;;;;;;;11.17;9.97;;;8.50;99.90;;;;;;4978494;28;20481;-65
2020/12/15 12:15:45;;;;;;;11.27;10.07;;;8.50;99.90;;;;;;4977609;28;20462;-65
2020/12/15 12:18:11;;;;;;;9.90;9.00;;;8.60;99.90;;;;;;4977427;28;20855;-67
2020/12/15 12:20:37;;;;;;;12.00;8.70;;;8.70;99.90;;;;;;4977641;28;20482;-64
2020/12/15 12:23:05;;;;;;;15.30;10.50;;;8.80;99.90;;;;;;4977839;28;20447;-64
2020/12/15 12:25:31;;;;;;;13.23;10.10;;;8.90;99.90;;;;;;4977743;28;20462;-64
2020/12/15 12:27:57;;;;;;;10.90;9.50;;;9.00;99.90;;;;;;4977832;28;21005;-65
2020/12/15 12:30:23;;;;;;;11.17;9.97;;;9.10;99.90;;;;;;4977499;28;20461;-64
2020/12/15 12:32:50;;;;;;;10.70;8.60;;;9.20;99.90;;;;;;4977519;28;20450;-65
2020/12/15 12:35:16;;;;;;;10.07;9.07;;;9.20;99.90;;;;;;4978361;28;20826;-65
2020/12/15 12:37:43;;;;;;;9.70;8.70;;;9.30;99.90;;;;;;4977266;28;20961;-64
2020/12/15 12:40:11;;;;;;;9.63;8.40;;;9.40;99.90;;;;;;4977149;28;20972;-64
2020/12/15 12:42:38;;;;;;;12.63;7.93;;;9.40;99.90;;;;;;4976902;28;20502;-64
2020/12/15 12:45:04;;;;;;;8.20;7.40;;;9.40;99.90;;;;;;4978057;28;20459;-63
2020/12/15 12:47:31;;;;;;;8.33;7.43;;;9.40;99.90;;;;;;4990236;28;20463;-66
2020/12/15 12:49:57;;;;;;;15.23;7.10;;;9.40;99.90;;;;;;4986756;28;20473;-65
2020/12/15 12:52:23;;;;;;;8.60;7.70;;;9.50;99.90;;;;;;4979023;28;20474;-65
2020/12/15 12:54:49;;;;;;;9.70;7.30;;;9.50;99.90;;;;;;4977961;28;20447;-65
2020/12/15 12:57:16;;;;;;;10.13;8.90;;;9.40;99.90;;;;;;4976314;28;20985;-65
2020/12/15 12:59:42;;;;;;;9.60;8.67;;;9.40;99.90;;;;;;4977484;28;20457;-65
2020/12/15 13:02:09;;;;;;;8.97;8.07;;;9.40;99.90;;;;;;4976824;28;20930;-64
2020/12/15 13:04:35;;;;;;;8.40;7.60;;;9.40;99.90;;;;;;4984445;28;20465;-65
2020/12/15 13:07:01;;;;;;;8.93;8.07;;;9.40;99.90;;;;;;4993866;28;20478;-65
2020/12/15 13:09:29;;;;;;;9.80;8.17;;;9.40;99.90;;;;;;4993688;28;20485;-64
2020/12/15 13:11:55;;;;;;;9.00;8.20;;;9.40;99.90;;;;;;4996084;28;20481;-65
2020/12/15 13:14:23;;;;;;;10.57;9.50;;;9.50;99.90;;;;;;4991945;28;20462;-64
2020/12/15 13:16:49;;;;;;;9.83;8.87;;;9.50;99.90;;;;;;4982653;28;20482;-64
2020/12/15 13:19:16;;;;;;;10.10;9.13;;;9.60;99.90;;;;;;4982951;28;20817;-66
2020/12/15 13:21:42;;;;;;;9.90;8.90;;;9.60;99.90;;;;;;4978035;28;20481;-64
2020/12/15 13:24:08;;;;;;;10.20;9.20;;;9.70;99.90;;;;;;4979399;28;20461;-65
2020/12/15 13:26:34;;;;;;;10.20;9.03;;;9.70;99.90;;;;;;4976649;28;20458;-64
2020/12/15 13:29:00;;;;;;;11.67;9.27;;;9.70;99.90;;;;;;4976600;28;20475;-65
2020/12/15 13:31:27;;;;;;;9.83;8.83;;;9.60;99.90;;;;;;4976314;28;20486;-65
2020/12/15 13:33:54;;;;;;;10.30;9.30;;;9.60;99.90;;;;;;4976519;28;20799;-65
2020/12/15 13:36:20;;;;;;;10.17;9.20;;;9.70;99.90;;;;;;4982252;28;20443;-66
2020/12/15 13:38:46;;;;;;;11.33;10.13;;;9.60;99.90;;;;;;4978997;28;20455;-65
2020/12/15 13:41:13;;;;;;;12.20;9.60;;;9.60;99.90;;;;;;4980427;28;20478;-65
2020/12/15 13:43:39;;;;;;;9.60;8.70;;;9.60;99.90;;;;;;4980704;28;20455;-65
2020/12/15 13:46:06;;;;;;;10.60;8.67;;;9.70;99.90;;;;;;4981372;28;20509;-67
2020/12/15 13:48:34;;;;;;;10.30;8.53;;;9.70;99.90;;;;;;4981640;28;20490;-65
2020/12/15 13:51:00;;;;;;;10.53;9.37;;;9.80;99.90;;;;;;4980762;28;20474;-66
2020/12/15 13:53:26;;;;;;;11.60;9.57;;;9.90;99.90;;;;;;4978729;28;20570;-64
2020/12/15 13:55:52;;;;;;;10.73;9.63;;;9.90;99.90;;;;;;4978939;28;20459;-64
2020/12/15 13:58:19;;;;;;;9.30;8.30;;;9.90;99.90;;;;;;4977553;28;20450;-66
2020/12/15 14:00:45;;;;;;;14.43;10.10;;;10.10;99.90;;;;;;4980602;28;20818;-65
2020/12/15 14:03:11;;;;;;;11.03;8.63;;;10.10;99.90;;;;;;4978985;28;20455;-65
2020/12/15 14:05:39;;;;;;;10.17;8.43;;;10.20;99.90;;;;;;4979614;28;20465;-64
2020/12/15 14:08:06;;;;;;;9.60;8.70;;;10.30;99.90;;;;;;4978755;28;20857;-64
2020/12/15 14:10:33;;;;;;;9.73;8.60;;;10.20;99.90;;;;;;4978744;28;20517;-64
2020/12/15 14:13:00;;;;;;;11.03;9.77;;;10.10;99.90;;;;;;4981510;28;20474;-64
2020/12/15 14:15:26;;;;;;;9.33;8.53;;;10.10;99.90;;;;;;4978122;28;20450;-64
2020/12/15 14:17:52;;;;;;;9.83;8.93;;;10.20;99.90;;;;;;4977636;28;20965;-65
2020/12/15 14:20:19;;;;;;;12.13;9.33;;;10.20;99.90;;;;;;4978083;28;21024;-65
2020/12/15 14:22:46;;;;;;;12.70;9.57;;;10.10;99.90;;;;;;4976926;28;20490;-65
2020/12/15 14:25:12;;;;;;;8.83;8.00;;;10.10;99.90;;;;;;4977018;28;20462;-64
2020/12/15 14:27:38;;;;;;;9.70;8.50;;;10.00;99.90;;;;;;4976478;28;20455;-64
2020/12/15 14:30:06;;;;;;;8.93;8.13;;;10.10;99.90;;;;;;4976522;28;20451;-63
2020/12/15 14:32:33;;;;;;;11.60;8.57;;;10.10;99.90;;;;;;4975768;28;20494;-64
2020/12/15 14:34:59;;;;;;;9.40;8.50;;;10.20;99.90;;;;;;4976423;28;20497;-64
2020/12/15 14:37:25;;;;;;;10.33;9.33;;;10.20;99.90;;;;;;4976495;28;20447;-64
2020/12/15 14:39:52;;;;;;;10.10;9.10;;;10.30;99.90;;;;;;4976182;28;20813;-64
2020/12/15 14:42:18;;;;;;;11.53;10.33;;;10.30;99.90;;;;;;4975684;28;20479;-64
2020/12/15 14:44:44;;;;;;;11.50;9.33;;;10.30;99.90;;;;;;4975686;28;20941;-66
2020/12/15 14:47:11;;;;;;;12.93;10.80;;;10.30;99.90;;;;;;4976086;28;20462;-64
2020/12/15 14:49:37;;;;;;;10.87;9.60;;;10.30;99.90;;;;;;4975498;28;20474;-64
2020/12/15 14:52:03;;;;;;;12.07;8.87;;;10.40;99.90;;;;;;4975595;28;20478;-64
2020/12/15 14:54:29;;;;;;;10.90;9.70;;;10.40;99.90;;;;;;4975846;28;20864;-63
2020/12/15 14:56:56;;;;;;;12.77;9.60;;;10.40;99.90;;;;;;4976122;28;20462;-64
2020/12/15 14:59:22;;;;;;;10.77;9.73;;;10.40;99.90;;;;;;4976091;28;20454;-64
2020/12/15 15:01:51;;;;;;;14.63;10.03;;;10.40;99.90;;;;;;4976053;28;20474;-64
2020/12/15 15:04:17;;;;;;;14.67;10.50;;;10.40;99.90;;;;;;4976428;28;20454;-64
2020/12/15 15:06:44;;;;;;;12.30;10.40;;;10.40;99.90;;;;;;4976924;28;20454;-65
2020/12/15 15:09:11;;;;;;;11.47;10.27;;;10.40;99.90;;;;;;4975586;28;20470;-64
2020/12/15 15:11:37;;;;;;;13.30;10.20;;;10.40;99.90;;;;;;4976407;28;20837;-64
2020/12/15 15:14:04;;;;;;;13.43;10.17;;;10.40;99.90;;;;;;4976039;28;20455;-64
2020/12/15 15:16:32;;;;;;;12.57;10.20;;;10.40;99.90;;;;;;4975927;28;20541;-64
2020/12/15 15:18:58;;;;;;;13.10;10.27;;;10.30;99.90;;;;;;4977127;28;20457;-64
2020/12/15 15:21:24;;;;;;;15.50;11.90;;;10.40;99.90;;;;;;4981993;28;20478;-65
2020/12/15 15:23:51;;;;;;;14.80;10.33;;;10.40;99.90;;;;;;4980710;28;20454;-64
2020/12/15 15:26:17;;;;;;;13.00;11.70;;;10.40;99.90;;;;;;4979795;28;20459;-65
2020/12/15 15:28:44;;;;;;;17.00;11.60;;;10.40;99.90;;;;;;4980481;28;20473;-64
2020/12/15 15:31:11;;;;;;;12.77;11.43;;;10.40;99.90;;;;;;4989376;28;20479;-64
2020/12/15 15:33:37;;;;;;;13.83;11.50;;;10.40;99.90;;;;;;4989614;28;20458;-65
2020/12/15 15:36:04;;;;;;;15.37;11.80;;;10.40;99.90;;;;;;4984243;28;20466;-64
2020/12/15 15:38:30;;;;;;;13.67;12.10;;;10.40;99.90;;;;;;4982781;28;20996;-65
2020/12/15 15:40:56;;;;;;;18.40;13.30;;;10.40;99.90;;;;;;4980634;28;20485;-64
2020/12/15 15:43:26;;;;;;;14.73;12.57;;;10.30;99.90;;;;;;4981362;28;20953;-64
2020/12/15 15:45:53;;;;;;;13.53;11.87;;;10.30;99.90;;;;;;4988278;28;20439;-64
2020/12/15 15:48:20;;;;;;;13.53;11.70;;;10.30;99.90;;;;;;4991654;28;20478;-63
2020/12/15 15:50:46;;;;;;;17.67;11.60;;;10.30;99.90;;;;;;4989321;28;20479;-64
2020/12/15 15:53:12;;;;;;;15.93;12.67;;;10.30;99.90;;;;;;4997911;28;20439;-65
2020/12/15 15:55:38;;;;;;;17.53;12.33;;;10.30;99.90;;;;;;4999327;28;20447;-64
2020/12/15 15:58:06;;;;;;;13.73;11.90;;;10.30;99.90;;;;;;4988286;28;20794;-64
2020/12/15 16:00:33;;;;;;;13.77;11.20;;;10.30;99.90;;;;;;4979713;28;20561;-64
2020/12/15 16:02:59;;;;;;;15.80;13.37;;;10.20;99.90;;;;;;4978860;28;20455;-64
2020/12/15 16:05:26;;;;;;;16.03;11.80;;;10.20;99.90;;;;;;4979219;28;20463;-64
2020/12/15 16:07:52;;;;;;;15.73;11.37;;;10.20;99.90;;;;;;4978734;28;20459;-64
2020/12/15 16:10:18;;;;;;;15.80;11.83;;;10.20;99.90;;;;;;4977958;28;20458;-64
2020/12/15 16:12:44;;;;;;;18.00;13.00;;;10.30;99.90;;;;;;4981051;28;20454;-64
2020/12/15 16:15:10;;;;;;;15.73;12.73;;;10.20;99.90;;;;;;4980577;28;20451;-63
2020/12/15 16:17:37;;;;;;;18.17;13.10;;;10.10;99.90;;;;;;4979162;28;20913;-64
2020/12/15 16:20:03;;;;;;;16.70;13.77;;;10.20;99.90;;;;;;4978795;28;20458;-63
2020/12/15 16:22:30;;;;;;;17.53;14.60;;;10.10;99.90;;;;;;4978719;28;20498;-63
2020/12/15 16:24:56;;;;;;;16.27;14.30;;;10.10;99.90;;;;;;4978205;28;20451;-63
2020/12/15 16:27:22;;;;;;;16.20;13.90;;;10.10;99.90;;;;;;4977852;28;20839;-64
2020/12/15 16:29:49;;;;;;;18.93;14.70;;;10.00;99.90;;;;;;4978041;28;20487;-64
2020/12/15 16:32:18;;;;;;;16.33;14.63;;;10.00;99.90;;;;;;4977718;28;20489;-64
2020/12/15 16:34:44;;;;;;;20.60;15.47;;;10.00;99.90;;;;;;4977635;28;20454;-65
2020/12/15 16:37:10;;;;;;;20.50;15.10;;;10.00;99.90;;;;;;4977254;28;20455;-65
2020/12/15 16:39:38;;;;;;;21.10;17.47;;;9.90;99.90;;;;;;4977876;28;20511;-63
2020/12/15 16:42:04;;;;;;;22.80;15.20;;;9.90;99.90;;;;;;4978212;28;20529;-63
2020/12/15 16:44:31;;;;;;;17.20;15.40;;;9.90;99.90;;;;;;4981400;28;20458;-64
2020/12/15 16:46:57;;;;;;;20.37;16.63;;;9.80;99.90;;;;;;4977245;28;20461;-63
2020/12/15 16:49:24;;;;;;;17.30;14.17;;;9.80;99.90;;;;;;4977553;28;20911;-63
2020/12/15 16:51:50;;;;;;;18.20;14.77;;;9.70;99.90;;;;;;4978204;28;20871;-63
2020/12/15 16:54:16;;;;;;;17.07;15.37;;;9.70;99.90;;;;;;4977490;28;20458;-64
2020/12/15 16:56:47;;;;;;;19.30;15.00;;;9.70;99.90;;;;;;4976882;28;20490;-65
2020/12/15 16:59:15;;;;;;;17.80;15.37;;;9.80;99.90;;;;;;4976956;28;20477;-64
2020/12/15 17:01:42;;;;;;;18.60;15.90;;;9.80;99.90;;;;;;4976667;28;20485;-65
2020/12/15 17:04:08;;;;;;;21.57;16.20;;;9.80;99.90;;;;;;4976797;28;20497;-63
2020/12/15 17:06:35;;;;;;;21.10;16.40;;;9.80;99.90;;;;;;4977136;28;20454;-64
2020/12/15 17:09:01;;;;;;;16.80;14.73;;;9.80;99.90;;;;;;4990533;28;20470;-64
2020/12/15 17:11:27;;;;;;;24.80;16.10;;;9.80;99.90;;;;;;4991140;28;20478;-65
2020/12/15 17:13:54;;;;;;;24.20;16.07;;;9.80;99.90;;;;;;4977511;28;20827;-65
2020/12/15 17:16:21;;;;;;;21.80;16.50;;;9.80;99.90;;;;;;4978495;28;20474;-64
2020/12/15 17:18:47;;;;;;;21.37;17.77;;;9.70;99.90;;;;;;4977571;28;20439;-63
2020/12/15 17:21:14;;;;;;;19.17;16.90;;;9.80;99.90;;;;;;4976548;28;20478;-64
2020/12/15 17:23:41;;;;;;;20.77;17.83;;;9.80;99.90;;;;;;4976455;28;20450;-66
2020/12/15 17:26:07;;;;;;;24.67;19.40;;;9.80;99.90;;;;;;4976255;28;20458;-65
2020/12/15 17:28:34;;;;;;;22.77;18.40;;;9.80;99.90;;;;;;4975682;28;20471;-64
2020/12/15 17:31:05;;;;;;;24.53;20.07;;;9.80;99.90;;;;;;4975853;28;20868;-65
2020/12/15 17:33:31;;;;;;;23.20;17.97;;;9.90;99.90;;;;;;4976160;28;20465;-64
2020/12/15 17:35:58;;;;;;;22.40;17.50;;;9.90;99.90;;;;;;4976371;28;20459;-64
2020/12/15 17:38:24;;;;;;;19.17;16.23;;;9.90;99.90;;;;;;4975829;28;20474;-64
2020/12/15 17:40:50;;;;;;;17.80;15.90;;;10.00;99.90;;;;;;4976431;28;20501;-63
2020/12/15 17:43:16;;;;;;;19.83;17.17;;;10.00;99.90;;;;;;4975292;28;20505;-64
2020/12/15 17:45:42;;;;;;;17.20;15.30;;;10.00;99.90;;;;;;4975938;28;20820;-63